Beauvallon, South Africa
Current Conditions -  °F | °C
As of 6:00 PM on Monday 22 Dec 2014 (Local Time) from FAUP Reporting Station
Few Clouds Few Clouds  
Wind Chill: 95°   Ceiling: Unl
Heat Index: 95°   Visibility: 6mi
Dew Point: 27°   Wind: 12mph
Humidity: 9%   Direction: 250°WSW
Pressure: 29.85"   Gusts: NA
Location:  28.5°S, 16.63°E
Report Text: FAUP 221600Z 25010KT 9999 FEW050 35/M03 Q1011 NOSIG
Loading
Personal Weather Stations






























Interactive Weather Map New forecast layout! Learn more

10-Day Weather Forecast

Advertisements
Track Severe Weather on mobile